Time;durP1;ratioP1;P1;durP2;ratioP2;P2;SDS_P1;SDS_P2;PMS_P1;PMS_P2;Temp;Humidity;BMP_temperature;BMP_pressure;BME280_temperature;BME280_humidity;BME280_pressure;Samples;Min_cycle;Max_cycle;Signal;HPM_P1;HPM_P2
2022/11/18 00:02:14;;;;;;;30.05;22.90;;;6.70;99.90;;;;;;5017040;28;20083;-57
2022/11/18 00:04:40;;;;;;;31.27;23.27;;;;;;;;;;5013941;28;20093;-57
2022/11/18 00:07:05;;;;;;;32.70;23.67;;;6.70;99.90;;;;;;5015401;28;20530;-57
2022/11/18 00:09:32;;;;;;;32.10;24.55;;;;;;;;;;5014629;28;20041;-57
2022/11/18 00:14:42;;;;;;;29.17;23.98;;;6.70;99.90;;;;;;5013804;28;20041;-56
2022/11/18 00:17:07;;;;;;;33.08;25.77;;;6.60;99.90;;;;;;5014946;28;20045;-57
2022/11/18 00:19:38;;;;;;;36.03;24.75;;;6.80;99.90;;;;;;5017373;28;20033;-57
2022/11/18 00:22:05;;;;;;;31.60;24.17;;;6.70;99.90;;;;;;5016765;28;20049;-57
2022/11/18 00:24:32;;;;;;;30.55;24.67;;;;;;;;;;5018005;28;20048;-57
2022/11/18 00:26:58;;;;;;;32.47;23.83;;;6.80;99.90;;;;;;5016628;28;20124;-57
2022/11/18 00:29:27;;;;;;;30.85;23.55;;;;;;;;;;5016632;28;20079;-57
2022/11/18 00:31:54;;;;;;;34.40;25.17;;;;;;;;;;5016274;28;20048;-57
2022/11/18 00:34:19;;;;;;;35.65;25.20;;;6.70;99.90;;;;;;5015725;28;20060;-57
2022/11/18 00:36:46;;;;;;;34.33;25.15;;;6.80;99.90;;;;;;5018345;28;20041;-57
2022/11/18 00:39:14;;;;;;;33.08;25.00;;;6.80;99.90;;;;;;5016694;28;20053;-57
2022/11/18 00:44:25;;;;;;;34.67;25.23;;;6.90;99.90;;;;;;5017024;28;20510;-57
2022/11/18 00:46:51;;;;;;;36.97;25.75;;;6.80;99.90;;;;;;5015953;28;20060;-57
2022/11/18 00:49:17;;;;;;;35.88;25.20;;;6.90;99.90;;;;;;5015799;28;20076;-56
2022/11/18 00:51:42;;;;;;;33.28;25.08;;;6.80;99.90;;;;;;5017151;28;20868;-57
2022/11/18 00:54:08;;;;;;;33.17;24.58;;;6.80;99.90;;;;;;5019316;28;20826;-57
2022/11/18 00:56:34;;;;;;;36.45;25.95;;;6.80;99.90;;;;;;5015697;28;20045;-57
2022/11/18 00:58:59;;;;;;;40.03;26.98;;;6.70;99.90;;;;;;5015452;28;20379;-57
2022/11/18 01:01:25;;;;;;;33.80;25.00;;;6.80;99.90;;;;;;5018629;28;20572;-57
2022/11/18 01:03:51;;;;;;;36.47;26.02;;;6.90;99.90;;;;;;5017319;28;20037;-57
2022/11/18 01:06:17;;;;;;;35.38;25.02;;;6.80;99.90;;;;;;5015255;28;20044;-57
2022/11/18 01:08:43;;;;;;;32.72;24.38;;;6.80;99.90;;;;;;5019410;28;20041;-57
2022/11/18 01:13:54;;;;;;;37.90;25.55;;;6.90;99.90;;;;;;5017456;28;20045;-57
2022/11/18 01:16:23;;;;;;;34.92;25.05;;;6.80;99.90;;;;;;5012784;28;20122;-57
2022/11/18 01:18:49;;;;;;;41.58;25.20;;;6.90;99.90;;;;;;5015636;28;20100;-57
2022/11/18 01:21:15;;;;;;;36.65;24.95;;;6.80;99.90;;;;;;5014769;28;20075;-57
2022/11/18 01:23:41;;;;;;;35.30;24.65;;;6.80;99.90;;;;;;5016532;28;20041;-57
2022/11/18 01:26:10;;;;;;;35.38;25.42;;;6.70;99.90;;;;;;5016561;28;20049;-58
2022/11/18 01:28:36;;;;;;;33.63;24.70;;;6.80;99.90;;;;;;5015357;28;20077;-57
2022/11/18 01:31:12;;;;;;;35.00;24.02;;;6.70;99.90;;;;;;5015205;28;20841;-57
2022/11/18 01:33:38;;;;;;;40.35;27.15;;;6.70;99.90;;;;;;5013653;28;20436;-58
2022/11/18 01:36:04;;;;;;;38.22;25.75;;;6.80;99.90;;;;;;5021284;28;20356;-57
2022/11/18 01:38:30;;;;;;;39.13;26.25;;;6.80;99.90;;;;;;5017308;28;20055;-58
2022/11/18 01:40:56;;;;;;;43.22;25.15;;;;;;;;;;5014218;28;20042;-57
2022/11/18 01:43:22;;;;;;;36.83;25.38;;;6.70;99.90;;;;;;5015536;28;20030;-57
2022/11/18 01:45:50;;;;;;;38.30;25.63;;;6.90;99.90;;;;;;5015558;28;20046;-57
2022/11/18 01:48:22;;;;;;;42.63;26.15;;;6.70;99.90;;;;;;5017413;28;20096;-57
2022/11/18 01:51:04;;;;;;;36.38;26.10;;;6.70;99.90;;;;;;5014283;28;20033;-57
2022/11/18 01:53:34;;;;;;;41.00;27.45;;;6.80;99.90;;;;;;5017504;28;20095;-57
2022/11/18 01:56:06;;;;;;;45.85;29.45;;;6.70;99.90;;;;;;5012370;28;20045;-57
2022/11/18 01:58:45;;;;;;;45.42;26.75;;;6.70;99.90;;;;;;5014175;28;20107;-57
2022/11/18 02:01:11;;;;;;;41.72;27.17;;;6.90;99.90;;;;;;5017639;28;20395;-57
2022/11/18 02:03:38;;;;;;;42.90;26.80;;;6.70;99.90;;;;;;5014003;28;20041;-56
2022/11/18 02:06:05;;;;;;;40.95;26.60;;;6.90;99.90;;;;;;5019376;28;20045;-57
2022/11/18 02:08:36;;;;;;;41.25;26.00;;;6.80;99.90;;;;;;5011288;28;20612;-57
2022/11/18 02:11:02;;;;;;;42.10;26.30;;;6.80;99.90;;;;;;5015433;28;20038;-57
2022/11/18 02:13:31;;;;;;;43.88;26.63;;;6.60;99.90;;;;;;5016305;28;20300;-57
2022/11/18 02:16:14;;;;;;;38.90;26.38;;;6.80;99.90;;;;;;5015546;28;20053;-57
2022/11/18 02:18:42;;;;;;;40.60;28.52;;;6.60;99.90;;;;;;5015310;28;20053;-56
2022/11/18 02:21:16;;;;;;;46.22;28.40;;;6.70;99.90;;;;;;5015517;28;20065;-57
2022/11/18 02:24:03;;;;;;;42.30;26.85;;;6.80;99.90;;;;;;5015813;28;20045;-58
2022/11/18 02:26:52;;;;;;;48.63;28.35;;;6.70;99.90;;;;;;5014860;28;20473;-58
2022/11/18 02:29:24;;;;;;;40.78;27.67;;;6.70;99.90;;;;;;5014926;28;21379;-56
2022/11/18 02:32:28;;;;;;;39.95;27.98;;;6.70;99.90;;;;;;5012382;28;20041;-57
2022/11/18 02:35:02;;;;;;;46.50;28.40;;;6.60;99.90;;;;;;4957436;28;20042;-57
2022/11/18 02:37:39;;;;;;;43.22;27.88;;;6.80;99.90;;;;;;5006883;28;20409;-57
2022/11/18 02:40:30;;;;;;;40.75;26.88;;;6.70;99.90;;;;;;5016130;28;20144;-57
2022/11/18 02:43:40;;;;;;;40.45;26.38;;;6.70;99.90;;;;;;5017470;28;20057;-57
2022/11/18 02:46:11;;;;;;;39.88;25.63;;;6.60;99.90;;;;;;4991476;28;20099;-57
2022/11/18 02:48:42;;;;;;;45.03;28.27;;;6.60;99.90;;;;;;5016542;28;20429;-57
2022/11/18 02:51:09;;;;;;;43.88;28.65;;;6.60;99.90;;;;;;5016156;28;20457;-57
2022/11/18 02:53:37;;;;;;;40.95;26.25;;;6.70;99.90;;;;;;5022008;28;21263;-58
2022/11/18 02:56:04;;;;;;;44.00;26.75;;;6.60;99.90;;;;;;5016627;28;20041;-57
2022/11/18 02:58:30;;;;;;;42.25;26.50;;;6.60;99.90;;;;;;5018304;28;20087;-57
2022/11/18 03:00:58;;;;;;;41.67;26.67;;;6.40;99.90;;;;;;5019450;28;20041;-57
2022/11/18 03:03:35;;;;;;;41.22;27.50;;;6.70;99.90;;;;;;5018074;28;20048;-57
2022/11/18 03:06:06;;;;;;;43.33;27.20;;;6.60;99.90;;;;;;5015389;28;20030;-57
2022/11/18 03:08:58;;;;;;;43.45;27.67;;;6.70;99.90;;;;;;5014790;28;20494;-56
2022/11/18 03:11:28;;;;;;;40.40;25.85;;;6.80;99.90;;;;;;5015022;28;20052;-57
2022/11/18 03:14:05;;;;;;;43.70;26.40;;;6.60;99.90;;;;;;5020260;28;20501;-58
2022/11/18 03:16:53;;;;;;;43.28;28.27;;;6.50;99.90;;;;;;5021074;28;20071;-57
2022/11/18 03:19:35;;;;;;;45.42;27.05;;;6.60;99.90;;;;;;5011915;28;20053;-57
2022/11/18 03:22:18;;;;;;;42.80;26.88;;;6.70;99.90;;;;;;5018914;28;20045;-57
2022/11/18 03:25:04;;;;;;;43.38;27.33;;;6.60;99.90;;;;;;5017220;28;20124;-57
2022/11/18 03:27:48;;;;;;;42.20;26.75;;;6.50;99.90;;;;;;5019081;28;20050;-57
2022/11/18 03:30:18;;;;;;;49.20;27.40;;;6.60;99.90;;;;;;5016840;28;20053;-57
2022/11/18 03:33:00;;;;;;;45.58;27.65;;;6.50;99.90;;;;;;5018517;28;20056;-56
2022/11/18 03:35:30;;;;;;;40.78;24.77;;;6.60;99.90;;;;;;5018431;28;20175;-57
2022/11/18 03:38:04;;;;;;;41.95;25.58;;;6.60;99.90;;;;;;5015977;28;20041;-57
2022/11/18 03:40:31;;;;;;;41.63;25.67;;;6.60;99.90;;;;;;5016762;28;20121;-57
2022/11/18 03:43:07;;;;;;;42.83;25.58;;;6.60;99.90;;;;;;5016989;28;20410;-57
2022/11/18 03:46:06;;;;;;;42.65;26.05;;;6.60;99.90;;;;;;5015594;28;20294;-57
2022/11/18 03:48:40;;;;;;;40.67;25.08;;;6.60;99.90;;;;;;5009006;28;20514;-56
2022/11/18 03:51:09;;;;;;;38.70;24.70;;;6.10;99.90;;;;;;5017645;28;20598;-57
2022/11/18 03:53:38;;;;;;;39.65;24.25;;;6.60;99.90;;;;;;5012922;28;20044;-56
2022/11/18 03:56:18;;;;;;;42.53;24.73;;;6.60;99.90;;;;;;5015612;28;20049;-57
2022/11/18 03:59:03;;;;;;;34.38;22.38;;;6.60;99.90;;;;;;5017307;28;20461;-57
2022/11/18 04:01:39;;;;;;;37.05;23.48;;;6.60;99.90;;;;;;5016169;28;20073;-57
2022/11/18 04:04:06;;;;;;;35.60;21.73;;;;;;;;;;5016970;28;20591;-57
2022/11/18 04:07:04;;;;;;;38.28;24.13;;;6.40;99.90;;;;;;5014102;28;20174;-57
2022/11/18 04:09:40;;;;;;;37.92;23.83;;;6.20;99.90;;;;;;5021871;28;20052;-57
2022/11/18 04:12:11;;;;;;;38.17;23.38;;;4.80;99.90;;;;;;5013970;28;20053;-57
2022/11/18 04:14:40;;;;;;;36.37;23.03;;;6.20;99.90;;;;;;5016333;28;20853;-57
2022/11/18 04:17:21;;;;;;;35.92;24.23;;;6.40;99.90;;;;;;5017779;28;20255;-57
2022/11/18 04:19:47;;;;;;;41.85;22.95;;;;;;;;;;5018999;28;20045;-57
2022/11/18 04:22:14;;;;;;;33.47;21.67;;;;;;;;;;5016364;28;20057;-57
2022/11/18 04:24:40;;;;;;;33.88;22.23;;;6.30;99.90;;;;;;5017452;28;20053;-57
2022/11/18 04:27:06;;;;;;;40.30;23.58;;;6.30;99.90;;;;;;5016510;28;20951;-57
2022/11/18 04:29:33;;;;;;;35.60;22.67;;;6.30;99.90;;;;;;5016769;28;20052;-57
2022/11/18 04:32:02;;;;;;;36.00;22.60;;;6.40;99.90;;;;;;5014874;28;20076;-56
2022/11/18 04:34:28;;;;;;;36.67;22.90;;;6.40;99.90;;;;;;5015259;28;20076;-57
2022/11/18 04:36:53;;;;;;;32.90;21.38;;;6.50;99.90;;;;;;5013716;28;20486;-57
2022/11/18 04:39:20;;;;;;;34.30;23.15;;;;;;;;;;5013597;28;20513;-57
2022/11/18 04:41:55;;;;;;;34.47;22.73;;;;;;;;;;5014070;28;20396;-57
2022/11/18 04:44:29;;;;;;;33.35;23.23;;;6.40;99.90;;;;;;5048886;28;20738;-57
2022/11/18 04:46:56;;;;;;;33.63;21.58;;;6.30;99.90;;;;;;5018028;28;20084;-57
2022/11/18 04:49:23;;;;;;;38.30;22.48;;;6.10;99.90;;;;;;5017465;28;20452;-56
2022/11/18 04:51:49;;;;;;;33.58;21.73;;;6.40;99.90;;;;;;5016883;28;20347;-57
2022/11/18 04:54:16;;;;;;;36.35;22.48;;;6.20;99.90;;;;;;5017242;28;20053;-57
2022/11/18 04:56:42;;;;;;;32.28;21.80;;;6.30;99.90;;;;;;5018836;28;20041;-57
2022/11/18 04:59:08;;;;;;;33.70;22.27;;;6.30;99.90;;;;;;5017128;28;20045;-57
2022/11/18 05:01:34;;;;;;;34.47;21.40;;;6.30;99.90;;;;;;5020563;28;20775;-56
2022/11/18 05:04:01;;;;;;;31.60;21.40;;;6.20;99.90;;;;;;5016123;28;20045;-56
2022/11/18 05:06:27;;;;;;;34.22;21.20;;;;;;;;;;5014788;28;20045;-57
2022/11/18 05:08:53;;;;;;;36.15;22.77;;;;;;;;;;5016062;28;20107;-57
2022/11/18 05:14:03;;;;;;;29.15;19.67;;;;;;;;;;5014428;28;20050;-57
2022/11/18 05:16:30;;;;;;;35.53;22.58;;;;;;;;;;5016193;28;20316;-57
2022/11/18 05:18:56;;;;;;;32.58;21.20;;;;;;;;;;5020644;28;20348;-58
2022/11/18 05:21:22;;;;;;;30.67;21.20;;;;;;;;;;5018730;28;20124;-58
2022/11/18 05:23:48;;;;;;;30.42;20.45;;;;;;;;;;5019073;28;20049;-58
2022/11/18 05:26:14;;;;;;;31.08;20.40;;;6.30;99.90;;;;;;5018183;28;20045;-57
2022/11/18 05:28:40;;;;;;;29.00;20.02;;;;;;;;;;5014831;28;20529;-57
2022/11/18 05:31:11;;;;;;;28.50;20.33;;;6.20;99.90;;;;;;5017632;28;20778;-57
2022/11/18 05:33:37;;;;;;;30.90;20.58;;;;;;;;;;5015380;28;20048;-57
2022/11/18 05:36:12;;;;;;;41.28;20.63;;;6.30;99.90;;;;;;5015753;28;20172;-57
2022/11/18 05:38:38;;;;;;;29.02;19.85;;;;;;;;;;5014524;28;20056;-56
2022/11/18 05:41:04;;;;;;;30.30;20.10;;;6.20;99.90;;;;;;5017062;28;20033;-57
2022/11/18 05:43:31;;;;;;;32.15;20.83;;;;;;;;;;5016726;28;20304;-57
2022/11/18 05:45:57;;;;;;;30.88;19.98;;;6.10;99.90;;;;;;5013982;28;20052;-57
2022/11/18 05:48:23;;;;;;;29.58;19.30;;;;;;;;;;5017288;28;20060;-56
2022/11/18 05:50:51;;;;;;;33.85;19.92;;;6.00;99.90;;;;;;5015104;28;20566;-56
2022/11/18 05:53:18;;;;;;;33.85;20.75;;;6.00;99.90;;;;;;5013704;28;20047;-56
2022/11/18 05:56:11;;;;;;;31.33;19.90;;;6.00;99.90;;;;;;5016012;28;20536;-57
2022/11/18 05:58:36;;;;;;;31.55;19.35;;;6.10;99.90;;;;;;5014235;28;20045;-57
2022/11/18 06:01:04;;;;;;;29.90;19.77;;;5.90;99.90;;;;;;5015666;28;20049;-57
2022/11/18 06:03:33;;;;;;;34.38;20.70;;;6.00;99.90;;;;;;5017195;28;20045;-57
2022/11/18 06:06:02;;;;;;;35.10;21.10;;;5.90;99.90;;;;;;5016162;28;20049;-57
2022/11/18 06:08:33;;;;;;;31.38;20.73;;;6.10;99.90;;;;;;5015851;28;20043;-57
2022/11/18 06:11:00;;;;;;;37.08;20.23;;;;;;;;;;5016607;28;20045;-56
2022/11/18 06:13:30;;;;;;;39.92;21.75;;;6.10;99.90;;;;;;5014342;28;20037;-56
2022/11/18 06:15:56;;;;;;;34.80;20.45;;;5.90;99.90;;;;;;5016300;28;20126;-57
2022/11/18 06:18:29;;;;;;;37.95;20.48;;;6.10;99.90;;;;;;5021170;28;20132;-57
2022/11/18 06:21:04;;;;;;;39.42;22.55;;;6.10;99.90;;;;;;5021464;28;20045;-57
2022/11/18 06:23:33;;;;;;;35.67;20.40;;;5.90;99.90;;;;;;5017586;28;20561;-57
2022/11/18 06:25:59;;;;;;;38.05;20.98;;;;;;;;;;5021787;28;20049;-57
2022/11/18 06:28:26;;;;;;;37.42;20.80;;;6.00;99.90;;;;;;5021137;28;20411;-57
2022/11/18 06:30:52;;;;;;;41.70;21.73;;;;;;;;;;5021430;28;20462;-57
2022/11/18 06:33:19;;;;;;;38.72;21.30;;;;;;;;;;5021971;28;20686;-56
2022/11/18 06:35:44;;;;;;;40.78;23.23;;;6.00;99.90;;;;;;5018227;28;20041;-56
2022/11/18 06:38:11;;;;;;;40.60;22.25;;;;;;;;;;5019440;28;20143;-57
2022/11/18 06:40:37;;;;;;;37.25;21.42;;;;;;;;;;5018303;28;20572;-57
2022/11/18 06:48:37;;;;;;;42.60;23.50;;;;;;;;;;5014932;28;20048;-57
2022/11/18 06:51:06;;;;;;;42.05;22.80;;;6.00;99.90;;;;;;5017630;28;20053;-56
2022/11/18 06:53:33;;;;;;;38.33;22.67;;;5.80;99.90;;;;;;5019782;28;20028;-56
2022/11/18 06:56:09;;;;;;;45.75;23.33;;;6.00;99.90;;;;;;5023421;28;20536;-57
2022/11/18 06:58:35;;;;;;;42.45;22.80;;;;;;;;;;5017309;28;20532;-57
2022/11/18 07:01:12;;;;;;;43.80;23.10;;;5.90;99.90;;;;;;5015820;28;20046;-57
2022/11/18 07:03:39;;;;;;;42.15;21.63;;;6.00;99.90;;;;;;5018302;28;20522;-57
2022/11/18 07:06:06;;;;;;;42.55;21.85;;;;;;;;;;5017916;28;20038;-57
2022/11/18 07:08:35;;;;;;;42.60;21.73;;;5.90;99.90;;;;;;5015767;28;20073;-57
2022/11/18 07:11:01;;;;;;;44.92;22.65;;;;;;;;;;5018121;28;20155;-56
2022/11/18 07:13:27;;;;;;;49.13;23.58;;;;;;;;;;5017518;28;20052;-57
2022/11/18 07:15:53;;;;;;;37.83;21.02;;;5.70;99.90;;;;;;5016764;28;20052;-57
2022/11/18 07:18:19;;;;;;;48.40;22.52;;;;;;;;;;5017382;28;20042;-57
2022/11/18 07:20:44;;;;;;;37.33;19.15;;;6.00;99.90;;;;;;5015929;28;20072;-57
2022/11/18 07:23:11;;;;;;;43.80;22.42;;;;;;;;;;5014851;28;20145;-56
2022/11/18 07:25:37;;;;;;;38.30;21.15;;;;;;;;;;5014962;28;20100;-57
2022/11/18 07:28:03;;;;;;;45.53;23.65;;;;;;;;;;5016403;28;20045;-57
2022/11/18 07:30:28;;;;;;;39.60;21.20;;;5.90;99.90;;;;;;5015595;28;20044;-57
2022/11/18 07:32:54;;;;;;;38.90;21.52;;;;;;;;;;5017994;28;20041;-57
2022/11/18 07:35:21;;;;;;;39.00;20.25;;;;;;;;;;5018256;28;20044;-57
2022/11/18 07:37:47;;;;;;;39.88;21.13;;;;;;;;;;5020245;28;20041;-57
2022/11/18 07:40:13;;;;;;;36.83;20.85;;;;;;;;;;5015897;28;20053;-57
2022/11/18 07:42:42;;;;;;;32.05;19.48;;;;;;;;;;5016123;28;20037;-57
2022/11/18 07:45:10;;;;;;;43.45;21.60;;;5.90;99.90;;;;;;5048536;28;20049;-57
2022/11/18 07:47:36;;;;;;;39.38;20.85;;;;;;;;;;5015833;28;20049;-56
2022/11/18 07:50:04;;;;;;;40.05;20.85;;;5.90;99.90;;;;;;5018194;28;20083;-57
2022/11/18 07:52:30;;;;;;;39.25;22.15;;;;;;;;;;5016778;28;20045;-57
2022/11/18 07:54:56;;;;;;;36.88;19.58;;;;;;;;;;5018929;28;20289;-57
2022/11/18 07:57:22;;;;;;;36.85;19.63;;;;;;;;;;5018368;28;20052;-57
2022/11/18 07:59:48;;;;;;;32.90;19.10;;;;;;;;;;5016364;28;20041;-57
2022/11/18 08:02:14;;;;;;;34.72;18.95;;;;;;;;;;5021116;28;20099;-57
2022/11/18 08:04:40;;;;;;;34.28;18.58;;;;;;;;;;5015434;28;20045;-57
2022/11/18 08:07:08;;;;;;;32.95;19.55;;;5.60;99.90;;;;;;5018913;28;20052;-57
2022/11/18 08:09:34;;;;;;;41.45;19.77;;;5.70;99.90;;;;;;5015167;28;20432;-57
2022/11/18 08:12:00;;;;;;;31.08;18.33;;;5.90;99.90;;;;;;5016044;28;20169;-57
2022/11/18 08:14:27;;;;;;;35.67;19.92;;;5.90;99.90;;;;;;5015984;28;20053;-57
2022/11/18 08:16:53;;;;;;;37.65;18.95;;;;;;;;;;5017199;28;20468;-56
2022/11/18 08:19:19;;;;;;;32.75;17.75;;;5.90;99.90;;;;;;5017186;28;20722;-56
2022/11/18 08:21:45;;;;;;;34.45;18.42;;;;;;;;;;5016296;28;20029;-56
2022/11/18 08:24:11;;;;;;;35.83;18.75;;;;;;;;;;5019351;28;20437;-57
2022/11/18 08:26:38;;;;;;;31.02;18.15;;;;;;;;;;5016236;28;20045;-57
2022/11/18 08:29:04;;;;;;;34.80;19.70;;;;;;;;;;5015870;28;20075;-57
2022/11/18 08:31:30;;;;;;;33.17;18.70;;;;;;;;;;5014953;28;20428;-57
2022/11/18 08:33:56;;;;;;;32.35;17.60;;;;;;;;;;5015110;28;20048;-56
2022/11/18 08:36:25;;;;;;;33.28;17.80;;;5.90;99.90;;;;;;5014832;28;20525;-57
2022/11/18 08:38:51;;;;;;;39.45;18.80;;;;;;;;;;5012008;28;20135;-57
2022/11/18 08:41:24;;;;;;;32.10;18.30;;;5.80;99.90;;;;;;5018093;28;20049;-57
2022/11/18 08:43:50;;;;;;;30.52;17.17;;;;;;;;;;5013796;28;20509;-57
2022/11/18 08:46:16;;;;;;;34.38;18.17;;;;;;;;;;5014638;28;20597;-57
2022/11/18 08:48:42;;;;;;;31.63;17.88;;;;;;;;;;5016738;28;20307;-57
2022/11/18 08:51:12;;;;;;;28.55;17.05;;;5.90;99.90;;;;;;5013618;28;20041;-57
2022/11/18 08:53:38;;;;;;;25.40;16.27;;;;;;;;;;5014490;28;20171;-57
2022/11/18 08:56:04;;;;;;;34.22;16.05;;;;;;;;;;5016475;28;20041;-56
2022/11/18 08:58:30;;;;;;;25.60;15.85;;;;;;;;;;5012617;28;20634;-57
2022/11/18 09:00:56;;;;;;;24.98;16.60;;;;;;;;;;5013727;28;20053;-57
2022/11/18 09:03:22;;;;;;;29.95;17.30;;;5.90;99.90;;;;;;5012045;28;20118;-57
2022/11/18 09:05:49;;;;;;;26.83;16.30;;;5.80;99.90;;;;;;5013364;28;20041;-57
2022/11/18 09:08:15;;;;;;;27.02;14.68;;;5.90;99.90;;;;;;5015441;28;20399;-56
2022/11/18 09:10:42;;;;;;;26.52;15.35;;;;;;;;;;5017008;28;20087;-57
2022/11/18 09:13:08;;;;;;;22.88;13.68;;;;;;;;;;5016753;28;20453;-57
2022/11/18 09:15:34;;;;;;;23.50;15.30;;;5.90;99.90;;;;;;5014303;28;20033;-56
2022/11/18 09:18:00;;;;;;;24.00;14.00;;;5.90;99.90;;;;;;5014758;28;20072;-56
2022/11/18 09:20:26;;;;;;;24.55;13.80;;;;;;;;;;5016433;28;20127;-57
2022/11/18 09:22:52;;;;;;;19.42;12.48;;;;;;;;;;5018294;28;20040;-57
2022/11/18 09:25:18;;;;;;;21.98;13.93;;;5.80;99.90;;;;;;5015684;28;20060;-57
2022/11/18 09:27:43;;;;;;;23.20;13.70;;;6.00;99.90;;;;;;5016356;28;20041;-57
2022/11/18 09:30:09;;;;;;;25.20;13.13;;;6.00;99.90;;;;;;5013405;28;20144;-57
2022/11/18 09:32:35;;;;;;;20.05;13.07;;;6.00;99.90;;;;;;5015920;28;20426;-57
2022/11/18 09:35:01;;;;;;;24.67;14.00;;;;;;;;;;5014351;28;20069;-57
2022/11/18 09:37:27;;;;;;;25.98;13.63;;;;;;;;;;5017281;28;20042;-57
2022/11/18 09:39:54;;;;;;;23.17;13.38;;;;;;;;;;5016021;28;20075;-56
2022/11/18 09:42:47;;;;;;;23.33;12.27;;;5.70;99.90;;;;;;5014513;28;20049;-57
2022/11/18 09:45:34;;;;;;;22.40;12.98;;;6.00;99.90;;;;;;5011305;28;20144;-57
2022/11/18 09:48:02;;;;;;;19.27;12.02;;;5.70;99.90;;;;;;5014417;28;20454;-57
2022/11/18 09:50:28;;;;;;;21.13;13.15;;;;;;;;;;5018269;28;20037;-57
2022/11/18 09:53:06;;;;;;;20.20;12.65;;;5.80;99.90;;;;;;5018248;28;20037;-57
2022/11/18 09:55:36;;;;;;;22.95;13.77;;;5.70;99.90;;;;;;5018551;28;20042;-57
2022/11/18 09:58:04;;;;;;;23.15;12.43;;;5.80;99.90;;;;;;5020252;28;20541;-57
2022/11/18 10:00:30;;;;;;;20.20;13.02;;;;;;;;;;5018973;28;20611;-57
2022/11/18 10:03:13;;;;;;;22.35;12.20;;;5.80;99.90;;;;;;5020504;28;20321;-57
2022/11/18 10:05:39;;;;;;;24.50;13.18;;;;;;;;;;5020579;28;20052;-56
2022/11/18 10:08:29;;;;;;;22.70;13.10;;;6.00;99.90;;;;;;5018129;28;20029;-57
2022/11/18 10:11:06;;;;;;;21.13;12.50;;;5.90;99.90;;;;;;5019110;28;20123;-57
2022/11/18 10:13:44;;;;;;;21.05;12.07;;;5.80;99.90;;;;;;5020481;28;20037;-56
2022/11/18 10:16:27;;;;;;;16.10;10.88;;;5.80;99.90;;;;;;5018255;28;20982;-57
2022/11/18 10:19:11;;;;;;;21.25;12.55;;;5.70;99.90;;;;;;5018374;28;20056;-56
2022/11/18 10:21:37;;;;;;;19.77;13.13;;;;;;;;;;5018672;28;20045;-57
2022/11/18 10:24:31;;;;;;;21.80;12.57;;;5.80;99.90;;;;;;5020239;28;20065;-56
2022/11/18 10:26:59;;;;;;;19.45;12.02;;;5.70;99.90;;;;;;5017114;28;20414;-57
2022/11/18 10:29:25;;;;;;;20.52;11.75;;;;;;;;;;5021748;28;20522;-57
2022/11/18 10:32:12;;;;;;;18.33;12.55;;;5.70;99.90;;;;;;5018955;28;20048;-57
2022/11/18 10:34:53;;;;;;;20.40;11.20;;;5.70;99.90;;;;;;5018765;28;20037;-57
2022/11/18 10:37:36;;;;;;;17.27;10.93;;;5.60;99.90;;;;;;5017270;28;20049;-56
2022/11/18 10:40:04;;;;;;;23.58;12.32;;;5.60;99.90;;;;;;5017840;28;20067;-56
2022/11/18 10:42:44;;;;;;;20.33;10.80;;;5.60;99.90;;;;;;5015714;28;20398;-56
2022/11/18 10:45:22;;;;;;;16.92;9.57;;;5.70;99.90;;;;;;5016046;28;20409;-56
2022/11/18 10:48:01;;;;;;;21.90;11.05;;;5.80;99.90;;;;;;5019641;28;20056;-57
2022/11/18 10:50:27;;;;;;;20.20;11.68;;;;;;;;;;5016712;28;20038;-56
2022/11/18 10:52:53;;;;;;;22.88;12.65;;;;;;;;;;5018562;28;20038;-56
2022/11/18 10:55:24;;;;;;;26.20;14.45;;;5.50;99.90;;;;;;5017849;28;20045;-57
2022/11/18 10:57:54;;;;;;;24.17;13.18;;;5.50;99.90;;;;;;5019669;28;20098;-57
2022/11/18 11:00:37;;;;;;;24.92;15.02;;;5.40;99.90;;;;;;5017794;28;20103;-57
2022/11/18 11:03:22;;;;;;;24.33;14.52;;;5.50;99.90;;;;;;5017663;28;20464;-57
2022/11/18 11:05:48;;;;;;;25.80;14.43;;;;;;;;;;5017728;28;20132;-57
2022/11/18 11:08:21;;;;;;;25.05;14.85;;;5.40;99.90;;;;;;5016385;28;20049;-57
2022/11/18 11:10:55;;;;;;;26.00;14.02;;;5.40;99.90;;;;;;5016409;28;20064;-57
2022/11/18 11:13:24;;;;;;;27.80;13.98;;;5.20;99.90;;;;;;5013827;28;20037;-57
2022/11/18 11:15:52;;;;;;;24.08;13.18;;;5.30;99.90;;;;;;5017666;28;20037;-56
2022/11/18 11:18:41;;;;;;;24.77;13.75;;;5.40;99.90;;;;;;5017912;28;20403;-57
2022/11/18 11:21:18;;;;;;;19.83;11.82;;;3.80;99.90;;;;;;5019058;28;20132;-55
2022/11/18 11:23:45;;;;;;;19.55;11.43;;;5.30;99.90;;;;;;5017247;28;20038;-57
2022/11/18 11:26:27;;;;;;;18.58;11.15;;;5.80;99.90;;;;;;5017702;28;20076;-56
2022/11/18 11:29:04;;;;;;;17.42;9.18;;;5.30;99.90;;;;;;5016677;28;20430;-57
2022/11/18 11:32:08;;;;;;;22.20;11.93;;;5.30;99.90;;;;;;5016720;28;20063;-58
2022/11/18 11:34:53;;;;;;;20.25;10.20;;;5.40;99.90;;;;;;5012879;28;20052;-57
2022/11/18 11:37:37;;;;;;;19.88;12.05;;;5.20;99.90;;;;;;5016778;28;20065;-57
2022/11/18 11:40:28;;;;;;;26.23;14.02;;;5.30;99.90;;;;;;5018181;28;20045;-56
2022/11/18 11:43:22;;;;;;;22.92;14.20;;;5.10;99.90;;;;;;5016313;28;20116;-57
2022/11/18 11:45:51;;;;;;;25.67;15.15;;;5.20;99.90;;;;;;5015940;28;20057;-57
2022/11/18 11:48:22;;;;;;;27.92;15.55;;;5.10;99.90;;;;;;5017623;28;20096;-56
2022/11/18 11:50:57;;;;;;;28.17;18.05;;;5.10;99.90;;;;;;5016904;28;20050;-56
2022/11/18 11:53:51;;;;;;;31.95;18.42;;;5.00;99.90;;;;;;5016451;28;20052;-56
2022/11/18 11:56:56;;;;;;;33.75;19.50;;;4.90;99.90;;;;;;5015328;28;20198;-56
2022/11/18 11:59:36;;;;;;;32.17;18.27;;;4.80;99.90;;;;;;4971863;28;20061;-57
2022/11/18 12:02:14;;;;;;;37.90;20.08;;;4.80;99.90;;;;;;5013462;28;20055;-57
2022/11/18 12:04:50;;;;;;;38.45;20.33;;;5.00;99.90;;;;;;5017023;28;20171;-56
2022/11/18 12:07:23;;;;;;;39.55;20.95;;;4.80;99.90;;;;;;5015591;28;20187;-56
2022/11/18 12:10:16;;;;;;;35.45;20.10;;;3.50;99.90;;;;;;5016217;28;20296;-55
2022/11/18 12:13:19;;;;;;;42.80;22.63;;;4.70;99.90;;;;;;5015775;28;20098;-56
2022/11/18 12:16:07;;;;;;;39.00;20.02;;;4.70;99.90;;;;;;5007229;28;20700;-56
2022/11/18 12:18:48;;;;;;;34.83;19.02;;;4.70;99.90;;;;;;5017642;28;20045;-57
2022/11/18 12:21:44;;;;;;;44.65;22.10;;;4.70;99.90;;;;;;5015991;28;20049;-56
2022/11/18 12:24:16;;;;;;;33.60;19.77;;;4.70;99.90;;;;;;5012848;28;20564;-56
2022/11/18 12:26:46;;;;;;;33.33;17.70;;;4.40;99.90;;;;;;5016326;28;20095;-57
2022/11/18 12:29:18;;;;;;;39.95;19.60;;;4.40;99.90;;;;;;5019414;28;20131;-56
2022/11/18 12:31:50;;;;;;;33.83;17.80;;;4.40;99.90;;;;;;5012293;28;20107;-56
2022/11/18 12:34:50;;;;;;;27.55;14.63;;;4.60;99.90;;;;;;5014080;28;20623;-57
2022/11/18 12:37:22;;;;;;;24.27;14.05;;;4.40;99.90;;;;;;5017365;28;20053;-56
2022/11/18 12:39:57;;;;;;;31.23;18.83;;;4.50;99.90;;;;;;5016708;28;20106;-56
2022/11/18 12:45:52;;;;;;;31.67;17.10;;;4.50;99.90;;;;;;5015421;28;20533;-55
2022/11/18 12:48:31;;;;;;;30.02;16.83;;;4.50;99.90;;;;;;5017468;28;20119;-56
2022/11/18 12:51:00;;;;;;;25.23;15.35;;;4.40;99.90;;;;;;5016034;28;20071;-55
2022/11/18 12:53:38;;;;;;;28.23;15.75;;;4.30;99.90;;;;;;5014664;28;20509;-55
2022/11/18 12:56:33;;;;;;;27.35;14.35;;;4.40;99.90;;;;;;5014424;28;20052;-54
2022/11/18 12:59:00;;;;;;;27.35;16.80;;;4.50;99.90;;;;;;5013929;28;20053;-55
2022/11/18 13:01:29;;;;;;;26.50;15.73;;;4.40;99.90;;;;;;5018032;28;20061;-56
2022/11/18 13:04:18;;;;;;;31.00;16.92;;;4.60;99.90;;;;;;5015803;28;20623;-56
2022/11/18 13:06:45;;;;;;;38.97;18.92;;;;;;;;;;5015190;28;20152;-56
2022/11/18 13:09:24;;;;;;;36.53;19.80;;;4.70;99.90;;;;;;5016160;28;20056;-55
2022/11/18 13:11:57;;;;;;;37.33;21.10;;;4.60;99.90;;;;;;5015890;28;20040;-55
2022/11/18 13:17:51;;;;;;;38.03;20.83;;;4.40;99.90;;;;;;5012284;28;20977;-56
2022/11/18 13:20:37;;;;;;;34.05;20.23;;;4.40;99.90;;;;;;5015136;28;20069;-56
2022/11/18 13:25:49;;;;;;;31.02;18.25;;;4.60;99.90;;;;;;5013254;28;20057;-57
2022/11/18 13:28:16;;;;;;;26.33;14.43;;;;;;;;;;5014204;28;20481;-57
2022/11/18 13:31:00;;;;;;;26.67;15.50;;;4.30;99.90;;;;;;5018662;28;20581;-57
2022/11/18 13:33:26;;;;;;;27.27;15.00;;;;;;;;;;5014395;28;20140;-56
2022/11/18 13:35:52;;;;;;;23.58;14.68;;;;;;;;;;5014303;28;20094;-56
2022/11/18 13:38:23;;;;;;;24.13;13.95;;;4.80;99.90;;;;;;5012999;28;20045;-56
2022/11/18 13:41:06;;;;;;;24.88;14.65;;;;;;;;;;5015033;28;20073;-56
2022/11/18 13:43:36;;;;;;;27.52;15.98;;;4.50;99.90;;;;;;5013774;28;20046;-56
2022/11/18 13:46:15;;;;;;;26.17;15.95;;;4.40;99.90;;;;;;5015079;28;20042;-56
2022/11/18 13:48:52;;;;;;;30.83;17.77;;;4.40;99.90;;;;;;5047004;28;20050;-56
2022/11/18 13:51:18;;;;;;;26.58;15.85;;;;;;;;;;5014672;28;20052;-56
2022/11/18 13:53:44;;;;;;;25.63;15.75;;;;;;;;;;5015302;28;20494;-56